Country
Station

 

Weather  for  Safford, Safford Municipal Airport  -  United States    United States

  
12 °C (54 °F)
    
 
 

Current METAR for Safford, Safford Municipal Airport is :

KSAD 111851Z AUTO 13008KT 10SM CLR 12/01 A3015 RMK AO2 SLP190 T01220006

 

This is a report for Safford, Safford Municipal Airport - United States.
 
The report was made 36 minutes ago, at 18:51 UTC .
The wind was blowing at a speed of 4.1 meters per second (9.2 miles per hour) from southeast (130°).
 
The temperature was 12 °C (54 °F), with a dew-point at 1 °C (34 °F).
The atmospheric pressure was 1021 hPa (30.15 inHg).
The relative humidity was 46.8%.
 
The sky was clear.
 
The overall visibility was 16.1 kilometers (10.0 miles).
 

 
 
 
 

Country :   A   B   C   D   E   F   G   H   I   J   K   L   M   N   O   P   Q   R   S   T   U   V   W   Y   Z

 

Site Info  |  Disclaimer  |  Credits  |  Privacy
Contact us  |  Add to favorites
© 2013-2018 METARs - All rights reserved